createdAt,value
2022-10-14T00:01:32.906Z,101013.38
2022-10-14T00:04:00.125Z,101014.31
2022-10-14T00:06:29.882Z,101007.22
2022-10-14T00:08:59.960Z,101000.09
2022-10-14T00:11:29.933Z,101003.66
2022-10-14T00:13:59.516Z,101007.22
2022-10-14T00:16:29.212Z,101004.53
2022-10-14T00:18:57.714Z,100999.19
2022-10-14T00:21:24.807Z,101011.66
2022-10-14T00:23:51.666Z,101007.22
2022-10-14T00:26:24.297Z,101004.53
2022-10-14T00:28:51.749Z,101009.81
2022-10-14T00:31:18.890Z,101008.09
2022-10-14T00:33:46.021Z,101007.16
2022-10-14T00:36:14.747Z,101010.72
2022-10-14T00:38:41.719Z,100996.53
2022-10-14T00:41:11.607Z,100992.94
2022-10-14T00:43:58.692Z,100988.50
2022-10-14T00:46:27.645Z,100994.72
2022-10-14T00:48:54.645Z,100996.53
2022-10-14T00:51:21.542Z,100992.06
2022-10-14T00:53:48.241Z,100989.38
2022-10-14T00:56:17.886Z,100996.47
2022-10-14T00:58:45.612Z,100993.78
2022-10-14T01:01:12.417Z,100994.69
2022-10-14T01:03:39.985Z,101003.59
2022-10-14T01:06:14.280Z,100999.13
2022-10-14T01:09:00.971Z,100993.78
2022-10-14T01:11:41.085Z,100979.53
2022-10-14T01:14:20.531Z,100979.53
2022-10-14T01:16:56.744Z,100980.44
2022-10-14T01:19:48.861Z,100984.88
2022-10-14T01:22:39.200Z,100988.44
2022-10-14T01:25:14.345Z,100984.88
2022-10-14T01:28:05.825Z,100983.09
2022-10-14T01:30:42.091Z,100981.31
2022-10-14T01:33:16.648Z,100975.97
2022-10-14T01:35:49.261Z,100969.81
2022-10-14T01:38:25.155Z,100969.84
2022-10-14T01:41:18.247Z,100971.69
2022-10-14T01:43:46.794Z,100970.78
2022-10-14T01:46:13.630Z,100962.78
2022-10-14T01:48:44.960Z,100959.28
2022-10-14T01:51:15.687Z,100956.63
2022-10-14T01:53:44.202Z,100960.16
2022-10-14T01:56:11.691Z,100966.41
2022-10-14T01:58:39.353Z,100961.97
2022-10-14T02:01:08.420Z,100963.72
2022-10-14T02:03:40.011Z,100955.72
2022-10-14T02:06:11.873Z,100962.84
2022-10-14T02:08:49.211Z,100961.97
2022-10-14T02:11:18.143Z,100956.63
2022-10-14T02:13:58.330Z,100959.28
2022-10-14T02:16:37.862Z,100960.16
2022-10-14T02:19:20.045Z,100956.56
2022-10-14T02:21:52.515Z,100953.88
2022-10-14T02:24:30.129Z,100957.41
2022-10-14T02:27:03.053Z,100962.75
2022-10-14T02:29:30.639Z,100956.47
2022-10-14T02:31:58.677Z,100952.03
2022-10-14T02:34:25.893Z,100953.81
2022-10-14T02:36:53.385Z,100960.03
2022-10-14T02:39:30.568Z,100952.88
2022-10-14T02:41:57.490Z,100951.06
2022-10-14T02:44:24.333Z,100951.94
2022-10-14T02:46:51.050Z,100937.69
2022-10-14T02:49:17.802Z,100941.22
2022-10-14T02:51:44.510Z,100936.78
2022-10-14T02:54:11.393Z,100936.72
2022-10-14T02:56:38.106Z,100933.22
2022-10-14T02:59:05.136Z,100932.28
2022-10-14T03:01:36.569Z,100928.69
2022-10-14T03:04:04.343Z,100930.47
2022-10-14T03:06:31.054Z,100925.97
2022-10-14T03:08:57.748Z,100929.50
2022-10-14T03:11:24.446Z,100922.38
2022-10-14T03:13:51.173Z,100922.38
2022-10-14T03:16:17.879Z,100923.28
2022-10-14T03:18:44.590Z,100917.91
2022-10-14T03:21:11.330Z,100923.25
2022-10-14T03:23:38.052Z,100924.13
2022-10-14T03:26:04.768Z,100913.44
2022-10-14T03:28:31.557Z,100919.66
2022-10-14T03:30:58.263Z,100926.75
2022-10-14T03:33:26.128Z,100923.19
2022-10-14T03:35:53.442Z,100931.19
2022-10-14T03:38:20.272Z,100928.53
2022-10-14T03:40:46.972Z,100929.41
2022-10-14T03:43:13.691Z,100932.97
2022-10-14T03:45:40.409Z,100923.19
2022-10-14T03:48:07.115Z,100925.84
2022-10-14T03:50:33.855Z,100917.84
2022-10-14T03:53:00.582Z,100923.19
2022-10-14T03:55:27.465Z,100920.50
2022-10-14T03:57:54.172Z,100918.72
2022-10-14T04:00:20.974Z,100915.19
2022-10-14T04:02:47.671Z,100921.41
2022-10-14T04:05:14.507Z,100920.53
2022-10-14T04:07:41.256Z,100909.88
2022-10-14T04:10:08.495Z,100916.13
2022-10-14T04:12:35.183Z,100917.91
2022-10-14T04:15:01.913Z,100920.56
2022-10-14T04:17:28.677Z,100912.56
2022-10-14T04:19:55.395Z,100912.59
2022-10-14T04:22:23.362Z,100905.44
2022-10-14T04:24:50.667Z,100912.56
2022-10-14T04:27:17.882Z,100905.44
2022-10-14T04:29:44.576Z,100904.56
2022-10-14T04:32:11.257Z,100904.56
2022-10-14T04:34:37.988Z,100900.19
2022-10-14T04:37:04.704Z,100909.94
2022-10-14T04:39:31.414Z,100909.09
2022-10-14T04:41:58.128Z,100901.97
2022-10-14T04:44:24.931Z,100905.53
2022-10-14T04:46:51.646Z,100915.28
2022-10-14T04:49:18.430Z,100915.28
2022-10-14T04:51:45.151Z,100914.38
2022-10-14T04:54:11.865Z,100920.56
2022-10-14T04:56:38.702Z,100911.69
2022-10-14T04:59:06.137Z,100912.56
2022-10-14T05:01:34.161Z,100908.97
2022-10-14T05:04:01.081Z,100898.28
2022-10-14T05:06:27.788Z,100900.09
2022-10-14T05:08:54.493Z,100897.44
2022-10-14T05:11:21.215Z,100890.41
2022-10-14T05:13:48.069Z,100889.53
2022-10-14T05:16:14.865Z,100883.41
2022-10-14T05:18:41.566Z,100879.03
2022-10-14T05:21:08.411Z,100886.19
2022-10-14T05:23:35.320Z,100886.28
2022-10-14T05:26:02.121Z,100886.31
2022-10-14T05:28:28.971Z,100883.72
2022-10-14T05:30:55.743Z,100882.03
2022-10-14T05:33:25.324Z,100882.97
2022-10-14T05:35:58.985Z,100883.88
2022-10-14T05:38:26.130Z,100884.84
2022-10-14T05:40:54.234Z,100883.97
2022-10-14T05:43:21.271Z,100894.66
2022-10-14T05:45:47.978Z,100890.25
2022-10-14T05:48:14.697Z,100886.69
2022-10-14T05:50:42.291Z,100896.44
2022-10-14T05:53:10.200Z,100895.53
2022-10-14T05:55:37.040Z,100893.69
2022-10-14T05:58:04.068Z,100899.00
2022-10-14T06:00:30.818Z,100902.50
2022-10-14T06:02:58.684Z,100898.03
2022-10-14T06:05:25.913Z,100892.63
2022-10-14T06:07:52.640Z,100895.28
2022-10-14T06:10:19.341Z,100890.81
2022-10-14T06:12:46.054Z,100889.03
2022-10-14T06:15:12.791Z,100877.47
2022-10-14T06:17:39.509Z,100888.16
2022-10-14T06:20:06.612Z,100890.84
2022-10-14T06:22:33.289Z,100886.44
2022-10-14T06:25:03.946Z,100887.34
2022-10-14T06:27:31.313Z,100881.13
2022-10-14T06:29:58.060Z,100882.88
2022-10-14T06:32:25.043Z,100885.56
2022-10-14T06:34:51.891Z,100872.25
2022-10-14T06:37:18.581Z,100880.31
2022-10-14T06:39:45.346Z,100879.38
2022-10-14T06:42:13.233Z,100886.47
2022-10-14T06:44:47.621Z,100881.94
2022-10-14T06:47:14.353Z,100885.47
2022-10-14T06:49:41.049Z,100888.06
2022-10-14T06:52:07.788Z,100886.19
2022-10-14T06:54:38.894Z,100878.03
2022-10-14T06:57:06.328Z,100883.25
2022-10-14T06:59:33.016Z,100887.59
2022-10-14T07:01:59.789Z,100894.59
2022-10-14T07:04:26.673Z,100882.91
2022-10-14T07:06:53.383Z,100888.19
2022-10-14T07:09:20.151Z,100888.09
2022-10-14T07:11:46.893Z,100887.94
2022-10-14T07:14:13.591Z,100893.25
2022-10-14T07:16:43.255Z,100887.78
2022-10-14T07:19:09.985Z,100893.06
2022-10-14T07:21:36.677Z,100883.19
2022-10-14T07:24:03.554Z,100890.28
2022-10-14T07:26:31.339Z,100893.69
2022-10-14T07:28:58.493Z,100896.25
2022-10-14T07:31:26.137Z,100897.03
2022-10-14T07:33:52.876Z,100898.72
2022-10-14T07:36:22.398Z,100895.94
2022-10-14T07:38:49.893Z,100887.81
2022-10-14T07:41:19.415Z,100890.47
2022-10-14T07:43:47.962Z,100894.81
2022-10-14T07:46:16.531Z,100893.91
2022-10-14T07:48:56.792Z,100893.03
2022-10-14T07:51:24.647Z,100889.38
2022-10-14T07:53:52.839Z,100887.47
2022-10-14T07:56:19.942Z,100894.50
2022-10-14T07:58:46.708Z,100893.50
2022-10-14T08:01:15.527Z,100895.22
2022-10-14T08:03:43.456Z,100890.75
2022-10-14T08:06:10.520Z,100888.94
2022-10-14T08:08:37.809Z,100894.28
2022-10-14T08:11:08.057Z,100895.16
2022-10-14T08:13:35.277Z,100890.63
2022-10-14T08:16:02.201Z,100895.00
2022-10-14T08:18:29.344Z,100894.00
2022-10-14T08:20:56.053Z,100893.00
2022-10-14T08:23:22.827Z,100888.44
2022-10-14T08:25:49.975Z,100892.00
2022-10-14T08:28:16.772Z,100894.69
2022-10-14T08:30:43.540Z,100887.56
2022-10-14T08:33:10.250Z,100880.41
2022-10-14T08:35:36.958Z,100877.72
2022-10-14T08:38:03.698Z,100879.31
2022-10-14T08:40:36.490Z,100867.53
2022-10-14T08:43:22.418Z,100869.13
2022-10-14T08:45:54.423Z,100864.44
2022-10-14T08:48:23.546Z,100870.56
2022-10-14T08:51:01.019Z,100868.63
2022-10-14T08:53:30.561Z,100866.75
2022-10-14T08:56:02.435Z,100861.34
2022-10-14T08:58:32.229Z,100864.72
2022-10-14T09:01:13.384Z,100852.16
2022-10-14T09:03:41.998Z,100860.06
2022-10-14T09:06:15.941Z,100850.16
2022-10-14T09:08:45.941Z,100850.09
2022-10-14T09:11:20.675Z,100844.63
2022-10-14T09:13:49.848Z,100843.59
2022-10-14T09:16:21.577Z,100842.53
2022-10-14T09:19:01.742Z,100837.81
2022-10-14T09:21:52.322Z,100834.75
2022-10-14T09:24:32.953Z,100837.25
2022-10-14T09:27:13.175Z,100832.69
2022-10-14T09:29:43.666Z,100827.13
2022-10-14T09:32:19.942Z,100832.22
2022-10-14T09:34:49.599Z,100840.94
2022-10-14T09:37:36.088Z,100834.56
2022-10-14T09:40:08.736Z,100838.06
2022-10-14T09:42:49.178Z,100838.94
2022-10-14T09:45:18.604Z,100836.22
2022-10-14T09:47:50.152Z,100833.34
2022-10-14T09:50:30.026Z,100839.44
2022-10-14T09:53:09.353Z,100839.31
2022-10-14T09:55:48.149Z,100827.63
2022-10-14T09:58:19.348Z,100824.03
2022-10-14T10:00:46.581Z,100824.81
2022-10-14T10:03:28.192Z,100823.81
2022-10-14T10:06:23.298Z,100815.63
2022-10-14T10:08:52.891Z,100815.56
2022-10-14T10:11:37.281Z,100812.88
2022-10-14T10:14:22.470Z,100808.44
2022-10-14T10:17:09.770Z,100808.53
2022-10-14T10:19:39.631Z,100802.22
2022-10-14T10:22:38.702Z,100803.09
2022-10-14T10:25:08.445Z,100797.69
2022-10-14T10:27:37.445Z,100788.72
2022-10-14T10:30:27.300Z,100785.97
2022-10-14T10:33:24.513Z,100781.47
2022-10-14T10:35:57.087Z,100778.75
2022-10-14T10:38:55.369Z,100778.59
2022-10-14T10:42:06.386Z,100773.06
2022-10-14T10:44:55.187Z,100768.34
2022-10-14T10:47:48.615Z,100759.16
2022-10-14T10:50:33.834Z,100759.75
2022-10-14T10:53:21.080Z,100748.81
2022-10-14T10:56:04.634Z,100755.75
2022-10-14T10:58:41.396Z,100745.72
2022-10-14T11:01:20.561Z,100745.41
2022-10-14T11:04:09.054Z,100745.91
2022-10-14T11:07:02.568Z,100744.78
2022-10-14T11:09:56.499Z,100737.41
2022-10-14T11:12:30.807Z,100732.03
2022-10-14T11:15:28.574Z,100733.84
2022-10-14T11:18:05.429Z,100729.34
2022-10-14T11:20:44.182Z,100735.69
2022-10-14T11:23:39.345Z,100732.03
2022-10-14T11:26:14.895Z,100732.88
2022-10-14T11:29:19.527Z,100725.69
2022-10-14T11:31:51.781Z,100719.19
2022-10-14T11:34:30.713Z,100711.91
2022-10-14T11:37:26.681Z,100716.28
2022-10-14T11:39:58.835Z,100708.19
2022-10-14T11:43:06.662Z,100703.88
2022-10-14T11:45:44.362Z,100703.94
2022-10-14T11:48:25.429Z,100708.34
2022-10-14T11:51:05.409Z,100703.75
2022-10-14T11:53:54.525Z,100700.00
2022-10-14T11:56:48.113Z,100698.09
2022-10-14T11:59:25.474Z,100690.84
2022-10-14T12:01:58.303Z,100691.72
2022-10-14T12:04:34.116Z,100687.25
2022-10-14T12:07:05.316Z,100688.09
2022-10-14T12:09:42.503Z,100682.59
2022-10-14T12:12:15.486Z,100679.72
2022-10-14T12:14:50.094Z,100676.97
2022-10-14T12:17:34.385Z,100675.22
2022-10-14T12:20:22.416Z,100681.53
2022-10-14T12:22:50.057Z,100676.22
2022-10-14T12:25:18.428Z,100677.22
2022-10-14T12:27:45.330Z,100673.72
2022-10-14T12:30:47.803Z,100667.38
2022-10-14T12:33:22.358Z,100666.31
2022-10-14T12:36:00.715Z,100666.84
2022-10-14T12:38:29.021Z,100665.56
2022-10-14T12:41:34.260Z,100661.03
2022-10-14T12:44:03.371Z,100661.16
2022-10-14T12:46:30.919Z,100664.03
2022-10-14T12:48:57.676Z,100657.09
2022-10-14T12:51:24.692Z,100664.41
2022-10-14T12:54:14.432Z,100662.88
2022-10-14T12:57:01.273Z,100660.38
2022-10-14T12:59:36.832Z,100656.94
2022-10-14T13:02:14.211Z,100657.09
2022-10-14T13:04:48.573Z,100650.00
2022-10-14T13:07:39.674Z,100653.50
2022-10-14T13:10:36.013Z,100642.81
2022-10-14T13:13:39.963Z,100644.56
2022-10-14T13:16:07.706Z,100642.81
2022-10-14T13:18:36.833Z,100641.88
2022-10-14T13:21:07.544Z,100640.06
2022-10-14T13:23:35.880Z,100632.81
2022-10-14T13:26:27.221Z,100631.00
2022-10-14T13:29:12.637Z,100634.69
2022-10-14T13:31:56.521Z,100624.88
2022-10-14T13:34:36.498Z,100615.13
2022-10-14T13:37:21.253Z,100609.81
2022-10-14T13:39:47.984Z,100603.56
2022-10-14T13:42:24.355Z,100596.38
2022-10-14T13:44:52.282Z,100592.81
2022-10-14T13:47:21.440Z,100588.31
2022-10-14T13:49:50.224Z,100583.84
2022-10-14T13:52:21.567Z,100583.94
2022-10-14T13:54:48.446Z,100577.59
2022-10-14T13:57:47.764Z,100576.72
2022-10-14T14:00:40.102Z,100572.22
2022-10-14T14:03:22.255Z,100572.31
2022-10-14T14:05:49.836Z,100566.09
2022-10-14T14:08:38.687Z,100570.59
2022-10-14T14:11:23.125Z,100559.13
2022-10-14T14:14:01.480Z,100558.31
2022-10-14T14:16:35.888Z,100562.88
2022-10-14T14:19:08.273Z,100558.50
2022-10-14T14:21:35.348Z,100563.06
2022-10-14T14:24:11.212Z,100556.78
2022-10-14T14:26:40.465Z,100556.78
2022-10-14T14:29:18.125Z,100546.94
2022-10-14T14:32:06.720Z,100538.09
2022-10-14T14:34:34.709Z,100546.16
2022-10-14T14:37:17.265Z,100542.63
2022-10-14T14:40:02.886Z,100535.50
2022-10-14T14:42:38.325Z,100534.72
2022-10-14T14:45:25.624Z,100526.66
2022-10-14T14:47:54.047Z,100518.63
2022-10-14T14:50:31.468Z,100522.25
2022-10-14T14:53:03.140Z,100524.16
2022-10-14T14:55:37.562Z,100517.91
2022-10-14T14:58:05.691Z,100512.56
2022-10-14T15:00:32.650Z,100507.34
2022-10-14T15:03:01.112Z,100505.53
2022-10-14T15:05:28.132Z,100511.03
2022-10-14T15:07:55.964Z,100505.72
2022-10-14T15:10:26.180Z,100493.28
2022-10-14T15:12:58.818Z,100486.16
2022-10-14T15:15:33.213Z,100495.16
2022-10-14T15:18:21.937Z,100495.16
2022-10-14T15:20:49.368Z,100492.59
2022-10-14T15:23:37.940Z,100498.03
2022-10-14T15:26:21.656Z,100490.97
2022-10-14T15:29:05.822Z,100497.28
2022-10-14T15:31:32.637Z,100485.69
2022-10-14T15:33:59.503Z,100480.41
2022-10-14T15:36:28.494Z,100478.66
2022-10-14T15:38:56.414Z,100468.91
2022-10-14T15:41:23.145Z,100471.72
2022-10-14T15:43:49.849Z,100470.91
2022-10-14T15:46:35.576Z,100474.53
2022-10-14T15:49:05.145Z,100469.25
2022-10-14T15:51:31.865Z,100464.84
2022-10-14T15:53:58.621Z,100475.63
2022-10-14T15:56:25.328Z,100466.75
2022-10-14T15:58:52.075Z,100459.66
2022-10-14T16:01:21.256Z,100465.09
2022-10-14T16:03:49.538Z,100464.25
2022-10-14T16:06:16.973Z,100465.13
2022-10-14T16:08:43.953Z,100461.66
2022-10-14T16:11:25.814Z,100459.00
2022-10-14T16:13:52.895Z,100457.34
2022-10-14T16:16:27.093Z,100450.22
2022-10-14T16:18:53.832Z,100449.34
2022-10-14T16:21:20.531Z,100444.09
2022-10-14T16:23:47.216Z,100448.63
2022-10-14T16:26:14.354Z,100448.63
2022-10-14T16:28:41.116Z,100446.88
2022-10-14T16:31:12.082Z,100438.91
2022-10-14T16:33:43.201Z,100435.41
2022-10-14T16:36:15.971Z,100432.84
2022-10-14T16:38:43.187Z,100424.03
2022-10-14T16:41:10.822Z,100429.44
2022-10-14T16:43:37.969Z,100427.75
2022-10-14T16:46:05.450Z,100428.72
2022-10-14T16:48:33.777Z,100436.91
2022-10-14T16:51:00.471Z,100437.88
2022-10-14T16:53:40.765Z,100428.97
2022-10-14T16:56:32.305Z,100435.31
2022-10-14T16:59:00.104Z,100426.47
2022-10-14T17:01:27.250Z,100418.47
2022-10-14T17:03:55.693Z,100422.97
2022-10-14T17:06:24.251Z,100422.22
2022-10-14T17:08:51.346Z,100426.69
2022-10-14T17:11:18.272Z,100422.31
2022-10-14T17:13:45.044Z,100421.47
2022-10-14T17:16:12.067Z,100419.69
2022-10-14T17:18:38.807Z,100420.59
2022-10-14T17:21:08.298Z,100419.69
2022-10-14T17:23:36.270Z,100416.94
2022-10-14T17:26:04.162Z,100416.09
2022-10-14T17:28:31.390Z,100418.69
2022-10-14T17:30:58.665Z,100418.69
2022-10-14T17:33:26.040Z,100414.22
2022-10-14T17:36:00.229Z,100415.13
2022-10-14T17:38:28.874Z,100415.13
2022-10-14T17:41:22.597Z,100413.41
2022-10-14T17:43:50.097Z,100411.66
2022-10-14T17:46:20.561Z,100413.50
2022-10-14T17:48:56.052Z,100410.81
2022-10-14T17:51:25.027Z,100400.22
2022-10-14T17:53:57.062Z,100410.13
2022-10-14T17:56:25.734Z,100402.19
2022-10-14T17:58:54.100Z,100404.09
2022-10-14T18:01:36.677Z,100403.25
2022-10-14T18:04:08.348Z,100400.75
2022-10-14T18:06:36.948Z,100395.56
2022-10-14T18:09:06.927Z,100391.25
2022-10-14T18:11:56.067Z,100389.59
2022-10-14T18:14:22.265Z,100387.13
2022-10-14T18:16:48.975Z,100373.91
2022-10-14T18:19:19.476Z,100377.59
2022-10-14T18:21:46.549Z,100368.78
2022-10-14T18:24:13.296Z,100368.00
2022-10-14T18:26:40.918Z,100360.09
2022-10-14T18:29:08.475Z,100362.88
2022-10-14T18:31:35.625Z,100355.78
2022-10-14T18:34:02.862Z,100348.69
2022-10-14T18:36:31.026Z,100353.25
2022-10-14T18:39:00.233Z,100346.22
2022-10-14T18:41:27.716Z,100353.50
2022-10-14T18:43:54.634Z,100354.44
2022-10-14T18:46:22.954Z,100355.34
2022-10-14T18:48:52.100Z,100352.69
2022-10-14T18:51:21.357Z,100359.91
2022-10-14T18:53:48.512Z,100359.84
2022-10-14T18:56:18.029Z,100338.47
2022-10-14T18:58:45.846Z,100334.97
2022-10-14T19:01:15.440Z,100336.94
2022-10-14T19:03:42.916Z,100349.53
2022-10-14T19:06:12.056Z,100335.28
2022-10-14T19:08:40.317Z,100342.53
2022-10-14T19:11:09.584Z,100324.78
2022-10-14T19:13:37.502Z,100326.66
2022-10-14T19:16:06.618Z,100335.66
2022-10-14T19:18:33.321Z,100338.41
2022-10-14T19:21:05.073Z,100338.41
2022-10-14T19:23:31.885Z,100338.47
2022-10-14T19:26:00.883Z,100327.88
2022-10-14T19:28:27.758Z,100332.34
2022-10-14T19:30:54.474Z,100322.56
2022-10-14T19:33:21.198Z,100309.16
2022-10-14T19:36:00.682Z,100316.31
2022-10-14T19:38:27.948Z,100319.06
2022-10-14T19:40:58.834Z,100305.69
2022-10-14T19:43:26.681Z,100311.03
2022-10-14T19:45:53.720Z,100313.72
2022-10-14T19:48:20.470Z,100311.03
2022-10-14T19:50:47.286Z,100319.06
2022-10-14T19:53:14.146Z,100313.75
2022-10-14T19:55:40.953Z,100299.50
2022-10-14T19:58:07.653Z,100307.53
2022-10-14T20:00:35.321Z,100306.66
2022-10-14T20:03:02.187Z,100292.34
2022-10-14T20:05:29.085Z,100299.50
2022-10-14T20:07:57.104Z,100291.47
2022-10-14T20:10:23.827Z,100283.47
2022-10-14T20:12:50.512Z,100280.75
2022-10-14T20:15:17.198Z,100280.75
2022-10-14T20:17:43.930Z,100277.16
2022-10-14T20:20:11.028Z,100270.91
2022-10-14T20:22:37.767Z,100278.06
2022-10-14T20:25:04.726Z,100275.38
2022-10-14T20:27:31.420Z,100270.91
2022-10-14T20:29:58.474Z,100274.47
2022-10-14T20:32:25.196Z,100269.91
2022-10-14T20:34:51.884Z,100260.06
2022-10-14T20:37:18.680Z,100260.97
2022-10-14T20:39:45.382Z,100266.31
2022-10-14T20:42:12.102Z,100252.03
2022-10-14T20:44:38.973Z,100247.63
2022-10-14T20:47:05.709Z,100250.38
2022-10-14T20:49:32.492Z,100246.78
2022-10-14T20:51:59.182Z,100257.47
2022-10-14T20:54:25.879Z,100259.19
2022-10-14T20:56:52.595Z,100262.84
2022-10-14T20:59:19.282Z,100261.88
2022-10-14T21:01:46.402Z,100252.91
2022-10-14T21:04:13.203Z,100244.88
2022-10-14T21:06:41.036Z,100252.00
2022-10-14T21:09:08.474Z,100248.44
2022-10-14T21:11:35.193Z,100239.53
2022-10-14T21:14:01.904Z,100235.06
2022-10-14T21:16:33.850Z,100237.72
2022-10-14T21:19:06.505Z,100237.72
2022-10-14T21:21:36.813Z,100239.53
2022-10-14T21:24:03.972Z,100243.97
2022-10-14T21:26:30.752Z,100241.28
2022-10-14T21:28:57.515Z,100229.69
2022-10-14T21:31:24.258Z,100227.03
2022-10-14T21:33:55.647Z,100235.94
2022-10-14T21:36:22.368Z,100222.53
2022-10-14T21:38:49.150Z,100220.66
2022-10-14T21:41:15.861Z,100214.38
2022-10-14T21:43:42.702Z,100219.75
2022-10-14T21:46:14.008Z,100211.66
2022-10-14T21:48:41.840Z,100212.47
2022-10-14T21:51:08.447Z,100212.47
2022-10-14T21:53:35.551Z,100210.66
2022-10-14T21:56:02.588Z,100215.09
2022-10-14T21:58:29.489Z,100217.78
2022-10-14T22:01:13.323Z,100218.69
2022-10-14T22:03:40.383Z,100228.50
2022-10-14T22:06:13.407Z,100214.16
2022-10-14T22:08:42.772Z,100208.81
2022-10-14T22:11:29.189Z,100206.19
2022-10-14T22:13:57.683Z,100207.06
2022-10-14T22:16:25.304Z,100199.94
2022-10-14T22:18:53.561Z,100205.31
2022-10-14T22:21:22.719Z,100200.91
2022-10-14T22:23:50.025Z,100203.59
2022-10-14T22:26:19.583Z,100194.72
2022-10-14T22:28:46.813Z,100200.06
2022-10-14T22:31:15.353Z,100198.31
2022-10-14T22:33:42.483Z,100200.06
2022-10-14T22:36:20.865Z,100195.59
2022-10-14T22:38:51.465Z,100199.16
2022-10-14T22:41:18.358Z,100202.72
2022-10-14T22:43:46.992Z,100191.13
2022-10-14T22:46:14.864Z,100196.41
2022-10-14T22:48:41.701Z,100194.59
2022-10-14T22:51:11.067Z,100194.59
2022-10-14T22:53:38.997Z,100196.34
2022-10-14T22:56:09.142Z,100198.09
2022-10-14T22:58:36.160Z,100199.03
2022-10-14T23:01:07.371Z,100199.03
2022-10-14T23:03:34.735Z,100199.94
2022-10-14T23:06:03.742Z,100197.28
2022-10-14T23:08:30.889Z,100196.34
2022-10-14T23:10:58.702Z,100195.56
2022-10-14T23:13:25.926Z,100205.31
2022-10-14T23:15:59.668Z,100200.81
2022-10-14T23:18:27.585Z,100197.28
2022-10-14T23:20:54.558Z,100199.94
2022-10-14T23:23:21.316Z,100201.69
2022-10-14T23:25:48.016Z,100199.94
2022-10-14T23:28:14.755Z,100200.81
2022-10-14T23:30:41.477Z,100201.69
2022-10-14T23:33:10.755Z,100200.81
2022-10-14T23:35:38.909Z,100196.34
2022-10-14T23:38:05.675Z,100194.59
2022-10-14T23:40:32.413Z,100198.22
2022-10-14T23:42:59.133Z,100196.41
2022-10-14T23:45:25.819Z,100196.47
2022-10-14T23:47:52.510Z,100202.72
2022-10-14T23:50:19.217Z,100196.47
2022-10-14T23:52:45.977Z,100200.94
2022-10-14T23:55:13.672Z,100200.06
2022-10-14T23:57:41.092Z,100200.91
